sensor_id;sensor_type;location;lat;lon;timestamp;pressure;altitude;pressure_sealevel;temperature;humidity
30618;BME280;17384;51.214;9.202;2023-12-20T00:01:45;98332.66;;;3.72;100.00
30618;BME280;17384;51.214;9.202;2023-12-20T00:04:10;98332.66;;;3.72;100.00
30618;BME280;17384;51.214;9.202;2023-12-20T00:06:36;98338.13;;;3.79;100.00
30618;BME280;17384;51.214;9.202;2023-12-20T00:09:01;98342.91;;;3.84;100.00
30618;BME280;17384;51.214;9.202;2023-12-20T00:11:27;98330.97;;;3.86;100.00
30618;BME280;17384;51.214;9.202;2023-12-20T00:13:52;98353.00;;;3.82;100.00
30618;BME280;17384;51.214;9.202;2023-12-20T00:18:46;98343.47;;;3.79;100.00
30618;BME280;17384;51.214;9.202;2023-12-20T00:21:11;98348.25;;;3.84;100.00
30618;BME280;17384;51.214;9.202;2023-12-20T00:23:37;98325.72;;;3.78;100.00
30618;BME280;17384;51.214;9.202;2023-12-20T00:26:02;98341.88;;;3.85;100.00
30618;BME280;17384;51.214;9.202;2023-12-20T00:28:28;98329.13;;;3.87;100.00
30618;BME280;17384;51.214;9.202;2023-12-20T00:30:53;98328.47;;;3.85;100.00
30618;BME280;17384;51.214;9.202;2023-12-20T00:33:19;98333.28;;;3.74;100.00
30618;BME280;17384;51.214;9.202;2023-12-20T00:35:44;98347.66;;;3.82;100.00
30618;BME280;17384;51.214;9.202;2023-12-20T00:38:10;98345.41;;;3.70;100.00
30618;BME280;17384;51.214;9.202;2023-12-20T00:40:36;98332.00;;;3.70;100.00
30618;BME280;17384;51.214;9.202;2023-12-20T00:43:02;98313.59;;;3.82;100.00
30618;BME280;17384;51.214;9.202;2023-12-20T00:45:27;98323.09;;;3.85;100.00
30618;BME280;17384;51.214;9.202;2023-12-20T00:47:53;98329.59;;;3.90;100.00
30618;BME280;17384;51.214;9.202;2023-12-20T00:50:18;98322.47;;;3.97;100.00
30618;BME280;17384;51.214;9.202;2023-12-20T00:52:44;98325.16;;;3.97;100.00
30618;BME280;17384;51.214;9.202;2023-12-20T00:55:09;98324.25;;;4.05;100.00
30618;BME280;17384;51.214;9.202;2023-12-20T00:57:35;98314.59;;;3.96;100.00
30618;BME280;17384;51.214;9.202;2023-12-20T01:00:00;98328.84;;;4.11;100.00
30618;BME280;17384;51.214;9.202;2023-12-20T01:02:26;98323.50;;;3.96;100.00
30618;BME280;17384;51.214;9.202;2023-12-20T01:04:51;98323.94;;;4.00;100.00
30618;BME280;17384;51.214;9.202;2023-12-20T01:07:17;98309.69;;;3.99;100.00
30618;BME280;17384;51.214;9.202;2023-12-20T01:09:42;98317.19;;;4.04;100.00
30618;BME280;17384;51.214;9.202;2023-12-20T01:12:08;98327.44;;;4.15;100.00
30618;BME280;17384;51.214;9.202;2023-12-20T01:14:33;98326.38;;;4.10;100.00
30618;BME280;17384;51.214;9.202;2023-12-20T01:16:59;98327.66;;;3.99;100.00
30618;BME280;17384;51.214;9.202;2023-12-20T01:19:25;98335.06;;;3.97;100.00
30618;BME280;17384;51.214;9.202;2023-12-20T01:21:50;98322.84;;;3.94;100.00
30618;BME280;17384;51.214;9.202;2023-12-20T01:24:15;98318.50;;;3.93;100.00
30618;BME280;17384;51.214;9.202;2023-12-20T01:26:41;98318.97;;;3.97;100.00
30618;BME280;17384;51.214;9.202;2023-12-20T01:29:07;98325.16;;;3.97;100.00
30618;BME280;17384;51.214;9.202;2023-12-20T01:31:32;98314.97;;;4.07;100.00
30618;BME280;17384;51.214;9.202;2023-12-20T01:33:58;98310.59;;;4.21;100.00
30618;BME280;17384;51.214;9.202;2023-12-20T01:36:23;98307.09;;;4.21;100.00
30618;BME280;17384;51.214;9.202;2023-12-20T01:38:49;98317.25;;;4.25;100.00
30618;BME280;17384;51.214;9.202;2023-12-20T01:41:14;98315.13;;;4.21;100.00
30618;BME280;17384;51.214;9.202;2023-12-20T01:43:40;98310.97;;;4.18;100.00
30618;BME280;17384;51.214;9.202;2023-12-20T01:46:05;98305.97;;;4.15;100.00
30618;BME280;17384;51.214;9.202;2023-12-20T01:48:31;98309.31;;;4.17;100.00
30618;BME280;17384;51.214;9.202;2023-12-20T01:50:59;98304.50;;;4.13;100.00
30618;BME280;17384;51.214;9.202;2023-12-20T01:53:26;98305.53;;;3.97;100.00
30618;BME280;17384;51.214;9.202;2023-12-20T01:55:54;98299.72;;;3.79;100.00
30618;BME280;17384;51.214;9.202;2023-12-20T01:58:20;98308.41;;;3.81;100.00
30618;BME280;17384;51.214;9.202;2023-12-20T02:00:47;98293.06;;;3.74;100.00
30618;BME280;17384;51.214;9.202;2023-12-20T02:03:13;98289.53;;;3.74;100.00
30618;BME280;17384;51.214;9.202;2023-12-20T02:05:39;98302.03;;;3.82;100.00
30618;BME280;17384;51.214;9.202;2023-12-20T02:08:05;98301.84;;;3.98;100.00
30618;BME280;17384;51.214;9.202;2023-12-20T02:10:31;98300.06;;;4.20;100.00
30618;BME280;17384;51.214;9.202;2023-12-20T02:12:57;98313.00;;;4.16;100.00
30618;BME280;17384;51.214;9.202;2023-12-20T02:15:22;98311.66;;;4.05;100.00
30618;BME280;17384;51.214;9.202;2023-12-20T02:17:49;98323.94;;;4.00;100.00
30618;BME280;17384;51.214;9.202;2023-12-20T02:20:14;98314.78;;;3.94;100.00
30618;BME280;17384;51.214;9.202;2023-12-20T02:22:39;98314.13;;;3.92;100.00
30618;BME280;17384;51.214;9.202;2023-12-20T02:25:05;98328.03;;;3.96;100.00
30618;BME280;17384;51.214;9.202;2023-12-20T02:27:31;98319.06;;;4.03;100.00
30618;BME280;17384;51.214;9.202;2023-12-20T02:29:56;98319.16;;;4.10;100.00
30618;BME280;17384;51.214;9.202;2023-12-20T02:32:22;98328.75;;;4.19;100.00
30618;BME280;17384;51.214;9.202;2023-12-20T02:34:51;98322.63;;;4.25;100.00
30618;BME280;17384;51.214;9.202;2023-12-20T02:37:17;98337.53;;;4.28;100.00
30618;BME280;17384;51.214;9.202;2023-12-20T02:39:42;98331.63;;;4.32;100.00
30618;BME280;17384;51.214;9.202;2023-12-20T02:42:07;98328.56;;;4.35;100.00
30618;BME280;17384;51.214;9.202;2023-12-20T02:44:33;98321.16;;;4.37;100.00
30618;BME280;17384;51.214;9.202;2023-12-20T02:46:59;98328.16;;;4.38;100.00
30618;BME280;17384;51.214;9.202;2023-12-20T02:49:24;98330.66;;;4.40;100.00
30618;BME280;17384;51.214;9.202;2023-12-20T02:51:50;98328.28;;;4.30;100.00
30618;BME280;17384;51.214;9.202;2023-12-20T02:54:15;98331.91;;;4.37;100.00
30618;BME280;17384;51.214;9.202;2023-12-20T02:56:41;98336.22;;;4.38;100.00
30618;BME280;17384;51.214;9.202;2023-12-20T02:59:06;98337.88;;;4.39;100.00
30618;BME280;17384;51.214;9.202;2023-12-20T03:01:34;98318.84;;;4.34;100.00
30618;BME280;17384;51.214;9.202;2023-12-20T03:04:00;98321.59;;;4.41;100.00
30618;BME280;17384;51.214;9.202;2023-12-20T03:06:26;98321.75;;;4.39;100.00
30618;BME280;17384;51.214;9.202;2023-12-20T03:08:51;98327.78;;;4.41;100.00
30618;BME280;17384;51.214;9.202;2023-12-20T03:11:17;98334.75;;;4.36;100.00
30618;BME280;17384;51.214;9.202;2023-12-20T03:13:42;98330.47;;;4.41;100.00
30618;BME280;17384;51.214;9.202;2023-12-20T03:16:09;98339.69;;;4.32;100.00
30618;BME280;17384;51.214;9.202;2023-12-20T03:18:34;98338.47;;;4.35;100.00
30618;BME280;17384;51.214;9.202;2023-12-20T03:21:00;98351.72;;;4.36;100.00
30618;BME280;17384;51.214;9.202;2023-12-20T03:23:25;98334.66;;;4.29;100.00
30618;BME280;17384;51.214;9.202;2023-12-20T03:25:52;98351.81;;;4.28;100.00
30618;BME280;17384;51.214;9.202;2023-12-20T03:28:18;98344.75;;;4.27;100.00
30618;BME280;17384;51.214;9.202;2023-12-20T03:30:43;98340.41;;;4.26;100.00
30618;BME280;17384;51.214;9.202;2023-12-20T03:33:09;98352.81;;;4.27;100.00
30618;BME280;17384;51.214;9.202;2023-12-20T03:35:34;98333.47;;;4.32;100.00
30618;BME280;17384;51.214;9.202;2023-12-20T03:38:00;98343.38;;;4.31;100.00
30618;BME280;17384;51.214;9.202;2023-12-20T03:40:25;98349.03;;;4.36;100.00
30618;BME280;17384;51.214;9.202;2023-12-20T03:42:51;98343.38;;;4.31;100.00
30618;BME280;17384;51.214;9.202;2023-12-20T03:45:16;98336.81;;;4.34;100.00
30618;BME280;17384;51.214;9.202;2023-12-20T03:47:42;98340.69;;;4.31;100.00
30618;BME280;17384;51.214;9.202;2023-12-20T03:50:07;98341.91;;;4.29;100.00
30618;BME280;17384;51.214;9.202;2023-12-20T03:52:33;98341.81;;;4.22;100.00
30618;BME280;17384;51.214;9.202;2023-12-20T03:54:58;98338.00;;;4.17;100.00
30618;BME280;17384;51.214;9.202;2023-12-20T03:57:24;98345.59;;;4.13;100.00
30618;BME280;17384;51.214;9.202;2023-12-20T03:59:49;98345.78;;;4.12;100.00
30618;BME280;17384;51.214;9.202;2023-12-20T04:02:15;98349.56;;;4.17;100.00
30618;BME280;17384;51.214;9.202;2023-12-20T04:04:40;98345.41;;;4.15;100.00
30618;BME280;17384;51.214;9.202;2023-12-20T04:07:07;98341.16;;;4.20;100.00
30618;BME280;17384;51.214;9.202;2023-12-20T04:09:32;98344.84;;;4.19;100.00
30618;BME280;17384;51.214;9.202;2023-12-20T04:11:58;98340.63;;;4.10;100.00
30618;BME280;17384;51.214;9.202;2023-12-20T04:14:23;98346.44;;;3.99;100.00
30618;BME280;17384;51.214;9.202;2023-12-20T04:16:50;98342.00;;;4.06;100.00
30618;BME280;17384;51.214;9.202;2023-12-20T04:19:15;98334.31;;;4.03;100.00
30618;BME280;17384;51.214;9.202;2023-12-20T04:21:41;98340.44;;;3.97;100.00
30618;BME280;17384;51.214;9.202;2023-12-20T04:24:06;98355.44;;;4.06;100.00
30618;BME280;17384;51.214;9.202;2023-12-20T04:26:32;98348.09;;;4.00;100.00
30618;BME280;17384;51.214;9.202;2023-12-20T04:28:57;98343.19;;;3.89;100.00
30618;BME280;17384;51.214;9.202;2023-12-20T04:31:23;98359.66;;;3.86;100.00
30618;BME280;17384;51.214;9.202;2023-12-20T04:33:49;98343.56;;;3.86;100.00
30618;BME280;17384;51.214;9.202;2023-12-20T04:36:14;98360.47;;;3.71;100.00
30618;BME280;17384;51.214;9.202;2023-12-20T04:38:39;98374.91;;;3.70;100.00
30618;BME280;17384;51.214;9.202;2023-12-20T04:41:05;98366.78;;;3.79;100.00
30618;BME280;17384;51.214;9.202;2023-12-20T04:43:30;98363.53;;;3.68;100.00
30618;BME280;17384;51.214;9.202;2023-12-20T04:45:56;98362.16;;;3.72;100.00
30618;BME280;17384;51.214;9.202;2023-12-20T04:48:21;98360.91;;;3.60;100.00
30618;BME280;17384;51.214;9.202;2023-12-20T04:50:47;98354.44;;;3.55;100.00
30618;BME280;17384;51.214;9.202;2023-12-20T04:53:12;98362.28;;;3.56;100.00
30618;BME280;17384;51.214;9.202;2023-12-20T04:55:38;98355.00;;;3.50;100.00
30618;BME280;17384;51.214;9.202;2023-12-20T04:58:04;98353.31;;;3.49;100.00
30618;BME280;17384;51.214;9.202;2023-12-20T05:00:29;98357.84;;;3.49;100.00
30618;BME280;17384;51.214;9.202;2023-12-20T05:02:55;98357.97;;;3.55;100.00
30618;BME280;17384;51.214;9.202;2023-12-20T05:05:21;98337.13;;;3.57;98.60
30618;BME280;17384;51.214;9.202;2023-12-20T05:07:46;98346.00;;;3.58;97.41
30618;BME280;17384;51.214;9.202;2023-12-20T05:10:11;98349.72;;;3.57;96.98
30618;BME280;17384;51.214;9.202;2023-12-20T05:12:37;98338.91;;;3.50;96.77
30618;BME280;17384;51.214;9.202;2023-12-20T05:15:04;98349.72;;;3.57;96.56
30618;BME280;17384;51.214;9.202;2023-12-20T05:17:30;98351.13;;;3.67;96.52
30618;BME280;17384;51.214;9.202;2023-12-20T05:19:56;98365.63;;;3.58;97.13
30618;BME280;17384;51.214;9.202;2023-12-20T05:22:21;98361.28;;;3.57;97.83
30618;BME280;17384;51.214;9.202;2023-12-20T05:24:46;98365.38;;;3.53;98.52
30618;BME280;17384;51.214;9.202;2023-12-20T05:27:12;98369.25;;;3.51;98.44
30618;BME280;17384;51.214;9.202;2023-12-20T05:29:37;98364.41;;;3.46;98.93
30618;BME280;17384;51.214;9.202;2023-12-20T05:32:03;98357.56;;;3.44;98.92
30618;BME280;17384;51.214;9.202;2023-12-20T05:34:32;98343.69;;;3.40;98.55
30618;BME280;17384;51.214;9.202;2023-12-20T05:36:58;98358.56;;;3.43;98.47
30618;BME280;17384;51.214;9.202;2023-12-20T05:39:23;98363.06;;;3.27;98.55
30618;BME280;17384;51.214;9.202;2023-12-20T05:41:49;98358.59;;;3.20;98.94
30618;BME280;17384;51.214;9.202;2023-12-20T05:44:14;98364.13;;;3.18;99.03
30618;BME280;17384;51.214;9.202;2023-12-20T05:46:40;98367.31;;;3.22;99.29
30618;BME280;17384;51.214;9.202;2023-12-20T05:49:05;98364.91;;;3.27;98.93
30618;BME280;17384;51.214;9.202;2023-12-20T05:51:31;98378.34;;;3.42;98.13
30618;BME280;17384;51.214;9.202;2023-12-20T05:53:57;98374.06;;;3.32;98.30
30618;BME280;17384;51.214;9.202;2023-12-20T05:56:23;98364.13;;;3.41;98.90
30618;BME280;17384;51.214;9.202;2023-12-20T05:58:49;98377.88;;;3.38;98.72
30618;BME280;17384;51.214;9.202;2023-12-20T06:01:15;98387.47;;;3.32;98.76
30618;BME280;17384;51.214;9.202;2023-12-20T06:03:43;98385.16;;;3.29;99.05
30618;BME280;17384;51.214;9.202;2023-12-20T06:06:09;98397.09;;;3.27;99.70
30618;BME280;17384;51.214;9.202;2023-12-20T06:08:36;98394.41;;;3.27;99.63
30618;BME280;17384;51.214;9.202;2023-12-20T06:11:01;98385.38;;;3.43;99.15
30618;BME280;17384;51.214;9.202;2023-12-20T06:13:27;98387.84;;;3.67;98.01
30618;BME280;17384;51.214;9.202;2023-12-20T06:15:54;98376.88;;;3.77;96.76
30618;BME280;17384;51.214;9.202;2023-12-20T06:20:48;98384.81;;;3.85;96.00
30618;BME280;17384;51.214;9.202;2023-12-20T06:23:14;98372.63;;;3.82;95.83
30618;BME280;17384;51.214;9.202;2023-12-20T06:25:39;98375.38;;;3.89;95.93
30618;BME280;17384;51.214;9.202;2023-12-20T06:28:05;98377.88;;;3.90;95.67
30618;BME280;17384;51.214;9.202;2023-12-20T06:30:30;98381.78;;;3.88;95.73
30618;BME280;17384;51.214;9.202;2023-12-20T06:32:58;98376.50;;;3.80;95.34
30618;BME280;17384;51.214;9.202;2023-12-20T06:35:23;98382.31;;;3.83;96.03
30618;BME280;17384;51.214;9.202;2023-12-20T06:37:49;98388.91;;;3.81;96.33
30618;BME280;17384;51.214;9.202;2023-12-20T06:40:15;98388.44;;;3.77;96.23
30618;BME280;17384;51.214;9.202;2023-12-20T06:42:41;98387.25;;;3.80;95.98
30618;BME280;17384;51.214;9.202;2023-12-20T06:45:08;98379.84;;;3.82;95.74
30618;BME280;17384;51.214;9.202;2023-12-20T06:47:34;98370.78;;;3.83;95.34
30618;BME280;17384;51.214;9.202;2023-12-20T06:50:00;98368.72;;;3.85;95.43
30618;BME280;17384;51.214;9.202;2023-12-20T06:52:26;98365.00;;;3.86;95.77
30618;BME280;17384;51.214;9.202;2023-12-20T06:54:51;98363.28;;;3.78;96.35
30618;BME280;17384;51.214;9.202;2023-12-20T06:57:17;98369.72;;;3.84;97.20
30618;BME280;17384;51.214;9.202;2023-12-20T06:59:42;98372.72;;;4.03;99.46
30618;BME280;17384;51.214;9.202;2023-12-20T07:02:09;98382.16;;;4.29;97.79
30618;BME280;17384;51.214;9.202;2023-12-20T07:04:39;98375.09;;;4.42;96.46
30618;BME280;17384;51.214;9.202;2023-12-20T07:07:05;98376.78;;;4.14;95.13
30618;BME280;17384;51.214;9.202;2023-12-20T07:09:33;98388.06;;;4.54;96.40
30618;BME280;17384;51.214;9.202;2023-12-20T07:11:59;98389.38;;;4.43;93.67
30618;BME280;17384;51.214;9.202;2023-12-20T07:14:24;98372.41;;;4.42;93.36
30618;BME280;17384;51.214;9.202;2023-12-20T07:16:50;98369.72;;;4.42;94.89
30618;BME280;17384;51.214;9.202;2023-12-20T07:19:16;98375.81;;;4.66;96.39
30618;BME280;17384;51.214;9.202;2023-12-20T07:21:42;98378.91;;;4.63;92.75
30618;BME280;17384;51.214;9.202;2023-12-20T07:24:07;98382.50;;;4.40;92.24
30618;BME280;17384;51.214;9.202;2023-12-20T07:26:33;98378.00;;;4.26;91.89
30618;BME280;17384;51.214;9.202;2023-12-20T07:28:59;98385.97;;;4.05;92.96
30618;BME280;17384;51.214;9.202;2023-12-20T07:31:24;98389.56;;;3.83;94.34
30618;BME280;17384;51.214;9.202;2023-12-20T07:33:50;98397.69;;;3.89;94.73
30618;BME280;17384;51.214;9.202;2023-12-20T07:36:15;98404.25;;;3.87;95.14
30618;BME280;17384;51.214;9.202;2023-12-20T07:38:41;98409.78;;;3.70;95.91
30618;BME280;17384;51.214;9.202;2023-12-20T07:41:11;98416.38;;;3.83;95.89
30618;BME280;17384;51.214;9.202;2023-12-20T07:43:36;98414.50;;;3.68;96.79
30618;BME280;17384;51.214;9.202;2023-12-20T07:46:08;98411.50;;;3.63;96.34
30618;BME280;17384;51.214;9.202;2023-12-20T07:48:38;98422.19;;;3.71;96.61
30618;BME280;17384;51.214;9.202;2023-12-20T07:51:05;98428.75;;;3.69;96.51
30618;BME280;17384;51.214;9.202;2023-12-20T07:53:35;98411.81;;;3.68;96.98
30618;BME280;17384;51.214;9.202;2023-12-20T07:56:02;98420.81;;;3.90;95.70
30618;BME280;17384;51.214;9.202;2023-12-20T07:58:28;98405.59;;;3.68;95.93
30618;BME280;17384;51.214;9.202;2023-12-20T08:00:55;98417.13;;;3.77;94.84
30618;BME280;17384;51.214;9.202;2023-12-20T08:03:21;98407.28;;;3.69;95.17
30618;BME280;17384;51.214;9.202;2023-12-20T08:05:48;98424.09;;;3.63;96.08
30618;BME280;17384;51.214;9.202;2023-12-20T08:08:14;98414.91;;;3.57;96.35
30618;BME280;17384;51.214;9.202;2023-12-20T08:10:40;98421.22;;;3.64;96.41
30618;BME280;17384;51.214;9.202;2023-12-20T08:13:06;98408.69;;;3.80;96.36
30618;BME280;17384;51.214;9.202;2023-12-20T08:15:32;98427.25;;;4.33;94.83
30618;BME280;17384;51.214;9.202;2023-12-20T08:17:59;98421.53;;;4.36;93.71
30618;BME280;17384;51.214;9.202;2023-12-20T08:20:25;98424.06;;;4.74;92.72
30618;BME280;17384;51.214;9.202;2023-12-20T08:22:51;98430.41;;;5.02;91.23
30618;BME280;17384;51.214;9.202;2023-12-20T08:25:17;98429.63;;;4.87;90.61
30618;BME280;17384;51.214;9.202;2023-12-20T08:27:43;98434.53;;;4.84;91.03
30618;BME280;17384;51.214;9.202;2023-12-20T08:30:09;98436.84;;;4.72;91.34
30618;BME280;17384;51.214;9.202;2023-12-20T08:32:35;98422.94;;;4.83;90.98
30618;BME280;17384;51.214;9.202;2023-12-20T08:35:01;98420.19;;;4.76;91.19
30618;BME280;17384;51.214;9.202;2023-12-20T08:37:28;98427.41;;;4.91;90.70
30618;BME280;17384;51.214;9.202;2023-12-20T08:39:55;98424.28;;;5.08;89.81
30618;BME280;17384;51.214;9.202;2023-12-20T08:42:21;98404.78;;;5.42;89.12
30618;BME280;17384;51.214;9.202;2023-12-20T08:44:47;98414.13;;;5.47;87.52
30618;BME280;17384;51.214;9.202;2023-12-20T08:47:13;98416.19;;;5.44;87.56
30618;BME280;17384;51.214;9.202;2023-12-20T08:49:41;98425.31;;;5.50;87.99
30618;BME280;17384;51.214;9.202;2023-12-20T08:52:06;98421.19;;;5.75;87.33
30618;BME280;17384;51.214;9.202;2023-12-20T08:54:32;98405.44;;;5.94;87.47
30618;BME280;17384;51.214;9.202;2023-12-20T08:56:57;98409.06;;;6.07;86.83
30618;BME280;17384;51.214;9.202;2023-12-20T08:59:23;98422.00;;;6.60;83.53
30618;BME280;17384;51.214;9.202;2023-12-20T09:01:48;98434.28;;;7.10;82.99
30618;BME280;17384;51.214;9.202;2023-12-20T09:04:19;98431.59;;;7.17;82.05
30618;BME280;17384;51.214;9.202;2023-12-20T09:06:45;98436.59;;;6.72;81.93
30618;BME280;17384;51.214;9.202;2023-12-20T09:09:10;98418.06;;;6.21;83.70
30618;BME280;17384;51.214;9.202;2023-12-20T09:11:39;98422.28;;;6.02;85.10
30618;BME280;17384;51.214;9.202;2023-12-20T09:14:04;98421.09;;;5.62;86.59
30618;BME280;17384;51.214;9.202;2023-12-20T09:16:30;98430.19;;;5.40;87.16
30618;BME280;17384;51.214;9.202;2023-12-20T09:18:56;98435.31;;;5.14;88.74
30618;BME280;17384;51.214;9.202;2023-12-20T09:21:22;98445.41;;;5.12;89.56
30618;BME280;17384;51.214;9.202;2023-12-20T09:23:48;98449.50;;;5.07;90.84
30618;BME280;17384;51.214;9.202;2023-12-20T09:26:13;98443.06;;;4.87;92.21
30618;BME280;17384;51.214;9.202;2023-12-20T09:28:39;98450.09;;;4.73;93.47
30618;BME280;17384;51.214;9.202;2023-12-20T09:31:06;98434.53;;;4.69;94.87
30618;BME280;17384;51.214;9.202;2023-12-20T09:33:32;98421.94;;;4.84;95.58
30618;BME280;17384;51.214;9.202;2023-12-20T09:35:58;98421.38;;;4.89;94.80
30618;BME280;17384;51.214;9.202;2023-12-20T09:38:24;98426.66;;;4.67;95.72
30618;BME280;17384;51.214;9.202;2023-12-20T09:40:49;98435.56;;;4.68;95.79
30618;BME280;17384;51.214;9.202;2023-12-20T09:43:19;98426.38;;;4.77;95.12
30618;BME280;17384;51.214;9.202;2023-12-20T09:45:47;98427.91;;;4.65;94.91
30618;BME280;17384;51.214;9.202;2023-12-20T09:48:14;98423.25;;;4.73;94.23
30618;BME280;17384;51.214;9.202;2023-12-20T09:50:42;98428.34;;;4.68;95.20
30618;BME280;17384;51.214;9.202;2023-12-20T09:53:10;98413.88;;;4.69;94.74
30618;BME280;17384;51.214;9.202;2023-12-20T09:55:37;98418.69;;;4.74;95.30
30618;BME280;17384;51.214;9.202;2023-12-20T09:58:03;98418.38;;;4.62;95.35
30618;BME280;17384;51.214;9.202;2023-12-20T10:00:29;98418.53;;;4.61;95.94
30618;BME280;17384;51.214;9.202;2023-12-20T10:02:59;98415.72;;;4.69;96.17
30618;BME280;17384;51.214;9.202;2023-12-20T10:05:31;98407.22;;;4.65;96.27
30618;BME280;17384;51.214;9.202;2023-12-20T10:07:57;98411.13;;;4.63;96.88
30618;BME280;17384;51.214;9.202;2023-12-20T10:10:23;98409.47;;;4.62;97.61
30618;BME280;17384;51.214;9.202;2023-12-20T10:15:28;98404.16;;;4.68;96.40
30618;BME280;17384;51.214;9.202;2023-12-20T10:17:54;98393.22;;;4.70;96.60
30618;BME280;17384;51.214;9.202;2023-12-20T10:20:20;98395.38;;;4.60;96.66
30618;BME280;17384;51.214;9.202;2023-12-20T10:22:46;98394.47;;;4.53;97.89
30618;BME280;17384;51.214;9.202;2023-12-20T10:25:12;98389.56;;;4.56;97.88
30618;BME280;17384;51.214;9.202;2023-12-20T10:27:38;98398.34;;;4.65;98.48
30618;BME280;17384;51.214;9.202;2023-12-20T10:30:04;98381.41;;;4.64;97.63
30618;BME280;17384;51.214;9.202;2023-12-20T10:32:31;98391.50;;;4.62;97.61
30618;BME280;17384;51.214;9.202;2023-12-20T10:34:57;98394.59;;;4.81;97.10
30618;BME280;17384;51.214;9.202;2023-12-20T10:37:24;98401.00;;;4.80;97.67
30618;BME280;17384;51.214;9.202;2023-12-20T10:39:52;98398.41;;;4.71;97.83
30618;BME280;17384;51.214;9.202;2023-12-20T10:42:21;98400.63;;;4.68;98.27
30618;BME280;17384;51.214;9.202;2023-12-20T10:44:49;98399.25;;;4.72;98.39
30618;BME280;17384;51.214;9.202;2023-12-20T10:47:15;98399.75;;;4.61;98.60
30618;BME280;17384;51.214;9.202;2023-12-20T10:49:41;98399.09;;;4.59;98.58
30618;BME280;17384;51.214;9.202;2023-12-20T10:52:08;98382.22;;;4.50;99.46
30618;BME280;17384;51.214;9.202;2023-12-20T10:54:34;98393.25;;;4.55;99.44
30618;BME280;17384;51.214;9.202;2023-12-20T10:57:00;98386.97;;;4.63;99.30
30618;BME280;17384;51.214;9.202;2023-12-20T10:59:27;98386.78;;;4.64;99.87
30618;BME280;17384;51.214;9.202;2023-12-20T11:01:55;98383.81;;;4.59;100.00
30618;BME280;17384;51.214;9.202;2023-12-20T11:05:10;98378.44;;;4.59;100.00
30618;BME280;17384;51.214;9.202;2023-12-20T11:07:48;98378.63;;;4.58;100.00
30618;BME280;17384;51.214;9.202;2023-12-20T11:10:23;98361.50;;;4.44;100.00
30618;BME280;17384;51.214;9.202;2023-12-20T11:13:09;98368.84;;;4.35;100.00
30618;BME280;17384;51.214;9.202;2023-12-20T11:15:36;98368.56;;;4.30;100.00
30618;BME280;17384;51.214;9.202;2023-12-20T11:18:03;98361.16;;;4.32;100.00
30618;BME280;17384;51.214;9.202;2023-12-20T11:20:40;98362.16;;;4.31;100.00
30618;BME280;17384;51.214;9.202;2023-12-20T11:23:07;98354.47;;;4.28;100.00
30618;BME280;17384;51.214;9.202;2023-12-20T11:25:47;98337.25;;;4.23;100.00
30618;BME280;17384;51.214;9.202;2023-12-20T11:28:14;98327.44;;;4.15;100.00
30618;BME280;17384;51.214;9.202;2023-12-20T11:30:47;98337.16;;;4.16;100.00
30618;BME280;17384;51.214;9.202;2023-12-20T11:33:13;98320.41;;;4.14;100.00
30618;BME280;17384;51.214;9.202;2023-12-20T11:35:39;98336.69;;;4.13;100.00
30618;BME280;17384;51.214;9.202;2023-12-20T11:38:08;98327.19;;;4.10;100.00
30618;BME280;17384;51.214;9.202;2023-12-20T11:40:34;98322.44;;;4.12;100.00
30618;BME280;17384;51.214;9.202;2023-12-20T11:43:00;98318.69;;;4.06;100.00
30618;BME280;17384;51.214;9.202;2023-12-20T11:45:25;98325.53;;;4.09;100.00
30618;BME280;17384;51.214;9.202;2023-12-20T11:47:52;98324.56;;;4.17;100.00
30618;BME280;17384;51.214;9.202;2023-12-20T11:50:22;98324.66;;;4.23;100.00
30618;BME280;17384;51.214;9.202;2023-12-20T11:52:48;98321.44;;;4.28;100.00
30618;BME280;17384;51.214;9.202;2023-12-20T11:55:14;98311.34;;;4.30;100.00
30618;BME280;17384;51.214;9.202;2023-12-20T11:57:39;98309.03;;;4.27;100.00
30618;BME280;17384;51.214;9.202;2023-12-20T12:00:05;98307.25;;;4.34;100.00
30618;BME280;17384;51.214;9.202;2023-12-20T12:02:31;98309.13;;;4.33;100.00
30618;BME280;17384;51.214;9.202;2023-12-20T12:04:57;98307.72;;;4.37;100.00
30618;BME280;17384;51.214;9.202;2023-12-20T12:07:24;98309.34;;;4.38;100.00
30618;BME280;17384;51.214;9.202;2023-12-20T12:09:50;98291.66;;;4.44;100.00
30618;BME280;17384;51.214;9.202;2023-12-20T12:12:16;98296.56;;;4.40;100.00
30618;BME280;17384;51.214;9.202;2023-12-20T12:14:44;98297.59;;;4.39;100.00
30618;BME280;17384;51.214;9.202;2023-12-20T12:17:13;98302.78;;;4.41;100.00
30618;BME280;17384;51.214;9.202;2023-12-20T12:19:40;98280.09;;;4.43;100.00
30618;BME280;17384;51.214;9.202;2023-12-20T12:22:14;98279.06;;;4.45;100.00
30618;BME280;17384;51.214;9.202;2023-12-20T12:24:44;98280.34;;;4.49;100.00
30618;BME280;17384;51.214;9.202;2023-12-20T12:27:11;98269.34;;;4.43;100.00
30618;BME280;17384;51.214;9.202;2023-12-20T12:29:37;98260.47;;;4.43;100.00
30618;BME280;17384;51.214;9.202;2023-12-20T12:32:07;98253.22;;;4.43;100.00
30618;BME280;17384;51.214;9.202;2023-12-20T12:34:34;98248.88;;;4.42;100.00
30618;BME280;17384;51.214;9.202;2023-12-20T12:36:59;98241.66;;;4.43;100.00
30618;BME280;17384;51.214;9.202;2023-12-20T12:39:25;98238.78;;;4.45;100.00
30618;BME280;17384;51.214;9.202;2023-12-20T12:41:51;98236.94;;;4.45;100.00
30618;BME280;17384;51.214;9.202;2023-12-20T12:44:17;98242.88;;;4.40;100.00
30618;BME280;17384;51.214;9.202;2023-12-20T12:46:44;98240.72;;;4.51;100.00
30618;BME280;17384;51.214;9.202;2023-12-20T12:49:10;98248.13;;;4.49;100.00
30618;BME280;17384;51.214;9.202;2023-12-20T12:51:35;98234.69;;;4.49;100.00
30618;BME280;17384;51.214;9.202;2023-12-20T12:54:01;98229.31;;;4.49;100.00
30618;BME280;17384;51.214;9.202;2023-12-20T12:56:27;98241.09;;;4.48;100.00
30618;BME280;17384;51.214;9.202;2023-12-20T12:58:53;98234.25;;;4.45;100.00
30618;BME280;17384;51.214;9.202;2023-12-20T13:01:18;98242.31;;;4.45;100.00
30618;BME280;17384;51.214;9.202;2023-12-20T13:03:44;98241.00;;;4.41;100.00
30618;BME280;17384;51.214;9.202;2023-12-20T13:06:09;98227.41;;;4.42;100.00
30618;BME280;17384;51.214;9.202;2023-12-20T13:08:35;98238.13;;;4.42;100.00